Time;durP1;ratioP1;P1;durP2;ratioP2;P2;SDS_P1;SDS_P2;PMS_P1;PMS_P2;Temp;Humidity;BMP_temperature;BMP_pressure;BME280_temperature;BME280_humidity;BME280_pressure;Samples;Min_cycle;Max_cycle;Signal;HPM_P1;HPM_P2
2022/01/03 00:02:23;;;;;;;13.85;2.15;;;8.60;99.90;;;;;;5077317;28;20044;-78
2022/01/03 00:04:49;;;;;;;10.18;1.55;;;8.60;99.90;;;;;;5093309;28;20047;-78
2022/01/03 00:07:16;;;;;;;16.70;2.63;;;8.70;99.90;;;;;;5077457;28;20047;-80
2022/01/03 00:09:45;;;;;;;13.13;1.63;;;8.70;99.90;;;;;;5093450;28;20080;-79
2022/01/03 00:12:11;;;;;;;13.75;1.80;;;8.70;99.90;;;;;;5076188;28;20182;-79
2022/01/03 00:14:37;;;;;;;13.68;2.20;;;8.70;99.90;;;;;;5093769;28;20110;-79
2022/01/03 00:17:03;;;;;;;17.70;2.88;;;8.80;99.90;;;;;;5093824;28;20044;-79
2022/01/03 00:19:28;;;;;;;15.45;2.03;;;8.80;99.90;;;;;;5093027;28;20102;-78
2022/01/03 00:21:57;;;;;;;14.45;2.53;;;8.80;99.90;;;;;;5094985;28;20039;-80
2022/01/03 00:24:32;;;;;;;18.15;2.75;;;8.80;99.90;;;;;;5095642;28;20079;-79
2022/01/03 00:27:05;;;;;;;;;;;8.80;99.90;;;;;;5090925;28;20052;-79
2022/01/03 00:29:43;;;;;;;15.85;2.33;;;8.70;99.90;;;;;;5073330;28;20011;-80
2022/01/03 00:32:10;;;;;;;26.15;3.15;;;8.80;99.90;;;;;;5089409;28;20131;-79
2022/01/03 00:34:37;;;;;;;19.50;3.10;;;8.80;99.90;;;;;;5090264;28;20052;-79
2022/01/03 00:37:06;;;;;;;23.05;4.35;;;8.70;99.90;;;;;;5073317;28;20060;-80
2022/01/03 00:39:32;;;;;;;20.70;3.53;;;8.70;99.90;;;;;;5056026;28;20093;-78
2022/01/03 00:41:58;;;;;;;23.90;3.25;;;8.70;99.90;;;;;;5092949;28;20040;-79
2022/01/03 00:44:25;;;;;;;19.67;3.60;;;8.70;99.90;;;;;;5076440;28;20483;-80
2022/01/03 00:46:55;;;;;;;19.30;3.67;;;8.70;99.90;;;;;;5092749;28;20040;-78
2022/01/03 00:49:21;;;;;;;23.33;3.85;;;8.70;99.90;;;;;;5076206;28;20063;-79
2022/01/03 00:51:47;;;;;;;29.52;3.42;;;8.70;99.90;;;;;;5093226;28;20123;-79
2022/01/03 00:54:12;;;;;;;20.88;3.08;;;8.70;99.90;;;;;;5092640;28;20079;-78
2022/01/03 00:56:43;;;;;;;21.73;2.92;;;8.70;99.90;;;;;;5092417;28;20044;-80
2022/01/03 00:59:38;;;;;;;19.30;3.55;;;8.70;99.90;;;;;;5091172;28;20048;-79
2022/01/03 01:02:06;;;;;;;27.55;3.40;;;8.70;99.90;;;;;;5092912;28;20055;-79
2022/01/03 01:04:32;;;;;;;31.13;4.82;;;8.70;99.90;;;;;;5092794;28;20052;-79
2022/01/03 01:06:58;;;;;;;19.17;3.83;;;8.70;99.90;;;;;;5075311;28;20088;-78
2022/01/03 01:09:27;;;;;;;27.10;3.10;;;8.70;99.90;;;;;;5092865;28;20043;-80
2022/01/03 01:11:58;;;;;;;24.27;3.85;;;8.70;99.90;;;;;;5092352;28;20044;-79
2022/01/03 01:14:25;;;;;;;30.23;4.22;;;8.70;99.90;;;;;;5074855;28;20546;-78
2022/01/03 01:16:51;;;;;;;17.10;2.75;;;8.80;99.90;;;;;;5093115;28;20445;-79
2022/01/03 01:19:19;;;;;;;29.30;4.13;;;8.80;99.90;;;;;;5092645;28;20135;-78
2022/01/03 01:21:47;;;;;;;25.30;5.25;;;8.80;99.90;;;;;;5091793;28;20051;-79
2022/01/03 01:24:15;;;;;;;24.98;4.20;;;8.80;99.90;;;;;;5093025;28;20477;-80
2022/01/03 01:29:27;;;;;;;28.95;4.57;;;8.80;99.90;;;;;;5091697;28;20047;-79
2022/01/03 01:31:55;;;;;;;28.70;3.83;;;8.90;99.90;;;;;;5092756;28;20043;-79
2022/01/03 01:34:26;;;;;;;26.45;4.43;;;8.90;99.90;;;;;;5092455;28;20067;-79
2022/01/03 01:36:55;;;;;;;28.92;5.00;;;8.90;99.90;;;;;;5092102;28;20032;-80
2022/01/03 01:39:25;;;;;;;18.13;3.15;;;9.00;99.90;;;;;;5092567;28;20083;-78
2022/01/03 01:41:58;;;;;;;21.35;3.60;;;9.00;99.90;;;;;;5091210;28;20047;-79
2022/01/03 01:44:25;;;;;;;32.25;5.22;;;9.00;99.90;;;;;;5092383;28;20052;-78
2022/01/03 01:46:54;;;;;;;42.17;5.25;;;9.00;99.90;;;;;;5092433;28;20044;-78
2022/01/03 01:49:22;;;;;;;33.92;4.68;;;9.00;99.90;;;;;;5091332;28;20056;-78
2022/01/03 01:51:57;;;;;;;19.08;3.85;;;9.10;99.90;;;;;;5092335;28;20080;-78
2022/01/03 01:54:37;;;;;;;22.48;5.18;;;9.10;99.90;;;;;;5092484;28;20132;-79
2022/01/03 01:57:06;;;;;;;26.75;3.55;;;9.10;99.90;;;;;;5072437;28;20044;-77
2022/01/03 01:59:45;;;;;;;27.10;5.07;;;9.20;99.90;;;;;;5092332;28;20044;-80
2022/01/03 02:02:15;;;;;;;23.27;3.45;;;9.20;99.90;;;;;;5075550;28;20127;-79
2022/01/03 02:04:47;;;;;;;29.77;4.35;;;9.20;99.90;;;;;;5091595;28;20040;-79
2022/01/03 02:07:31;;;;;;;26.95;5.20;;;9.20;99.90;;;;;;5075657;28;20386;-77
2022/01/03 02:10:16;;;;;;;28.35;4.40;;;9.10;99.90;;;;;;5092695;28;20560;-78
2022/01/03 02:12:49;;;;;;;20.67;3.92;;;9.10;99.90;;;;;;5079593;28;20364;-77
2022/01/03 02:15:18;;;;;;;32.42;4.88;;;9.00;99.90;;;;;;5079420;28;20047;-79
2022/01/03 02:17:46;;;;;;;24.00;5.35;;;9.00;99.90;;;;;;5095299;28;20046;-79
2022/01/03 02:20:20;;;;;;;23.50;6.05;;;8.90;99.90;;;;;;5095936;28;20491;-77
2022/01/03 02:22:50;;;;;;;23.35;4.40;;;8.90;99.90;;;;;;5096419;28;20036;-79
2022/01/03 02:25:18;;;;;;;24.13;5.25;;;8.90;99.90;;;;;;5095214;28;20070;-77
2022/01/03 02:27:46;;;;;;;19.55;4.43;;;8.90;99.90;;;;;;5096059;28;20044;-79
2022/01/03 02:30:14;;;;;;;24.02;4.72;;;8.90;99.90;;;;;;5079325;28;20123;-77
2022/01/03 02:32:41;;;;;;;27.63;4.32;;;8.90;99.90;;;;;;5095378;28;20048;-80
2022/01/03 02:35:08;;;;;;;28.33;4.45;;;8.90;99.90;;;;;;5096196;28;20048;-77
2022/01/03 02:37:47;;;;;;;33.15;5.72;;;8.90;99.90;;;;;;5095886;28;20044;-78
2022/01/03 02:40:13;;;;;;;26.83;5.20;;;8.80;99.90;;;;;;5094481;28;20097;-76
2022/01/03 02:42:40;;;;;;;29.15;4.13;;;8.80;99.90;;;;;;5095794;28;20043;-78
2022/01/03 02:45:10;;;;;;;24.27;4.50;;;8.90;99.90;;;;;;5094918;28;20055;-78
2022/01/03 02:47:37;;;;;;;27.42;4.68;;;8.90;99.90;;;;;;5096871;28;20056;-78
2022/01/03 02:50:05;;;;;;;17.83;3.80;;;8.90;99.90;;;;;;5096015;28;20048;-78
2022/01/03 02:52:33;;;;;;;24.98;4.80;;;8.80;99.90;;;;;;5077855;28;20043;-79
2022/01/03 02:55:01;;;;;;;25.48;4.78;;;8.80;99.90;;;;;;5078478;28;20072;-79
2022/01/03 02:57:37;;;;;;;24.90;4.75;;;8.80;99.90;;;;;;5095430;28;20127;-78
2022/01/03 03:00:06;;;;;;;32.28;5.40;;;8.80;99.90;;;;;;5077570;28;20101;-78
2022/01/03 03:02:32;;;;;;;21.00;4.50;;;8.80;99.90;;;;;;5077591;28;20051;-79
2022/01/03 03:05:03;;;;;;;22.35;4.32;;;8.80;99.90;;;;;;5095395;28;20044;-78
2022/01/03 03:07:30;;;;;;;23.05;4.28;;;8.70;99.90;;;;;;5077425;28;20048;-79
2022/01/03 03:09:57;;;;;;;25.58;4.05;;;8.70;99.90;;;;;;5095195;28;20054;-78
2022/01/03 03:12:24;;;;;;;33.83;4.65;;;8.70;99.90;;;;;;5095200;28;20055;-79
2022/01/03 03:14:51;;;;;;;35.05;5.18;;;8.70;99.90;;;;;;5077287;28;20043;-77
2022/01/03 03:17:18;;;;;;;32.30;4.78;;;8.70;99.90;;;;;;5095212;28;20060;-79
2022/01/03 03:19:50;;;;;;;32.97;4.45;;;8.60;99.90;;;;;;5096789;28;20052;-79
2022/01/03 03:22:16;;;;;;;33.58;6.15;;;8.70;99.90;;;;;;5073877;28;20446;-77
2022/01/03 03:24:42;;;;;;;18.38;4.10;;;8.60;99.90;;;;;;5075687;28;20036;-79
2022/01/03 03:27:12;;;;;;;27.98;5.07;;;8.60;99.90;;;;;;5094696;28;20055;-77
2022/01/03 03:29:50;;;;;;;28.27;4.55;;;8.60;99.90;;;;;;5094884;28;20457;-78
2022/01/03 03:32:19;;;;;;;25.10;4.47;;;8.60;99.90;;;;;;5094780;28;20059;-78
2022/01/03 03:34:47;;;;;;;33.13;5.57;;;8.50;99.90;;;;;;5093912;28;20044;-79
2022/01/03 03:37:14;;;;;;;23.60;3.95;;;8.50;99.90;;;;;;5094963;28;20066;-79
2022/01/03 03:39:40;;;;;;;33.42;5.53;;;8.50;99.90;;;;;;5077584;28;20040;-79
2022/01/03 03:42:07;;;;;;;34.42;6.05;;;8.50;99.90;;;;;;5110668;28;20486;-78
2022/01/03 03:44:34;;;;;;;25.17;4.88;;;8.50;99.90;;;;;;5094713;28;20044;-78
2022/01/03 03:47:01;;;;;;;33.83;5.93;;;8.60;99.90;;;;;;5094691;28;20039;-78
2022/01/03 03:49:26;;;;;;;34.22;5.28;;;8.60;99.90;;;;;;5093396;28;20098;-77
2022/01/03 03:51:52;;;;;;;25.55;4.20;;;8.60;99.90;;;;;;5111897;28;20044;-78
2022/01/03 03:54:18;;;;;;;26.98;4.55;;;8.60;99.90;;;;;;5095806;28;20126;-78
2022/01/03 03:56:44;;;;;;;29.95;4.97;;;8.70;99.90;;;;;;5094414;28;20043;-78
2022/01/03 03:59:10;;;;;;;28.55;5.25;;;8.70;99.90;;;;;;5077416;28;20550;-79
2022/01/03 04:01:36;;;;;;;30.35;5.13;;;8.70;99.90;;;;;;5093910;28;20143;-78
2022/01/03 04:04:03;;;;;;;35.75;5.65;;;8.70;99.90;;;;;;5093362;28;20048;-78
2022/01/03 04:06:29;;;;;;;24.98;4.50;;;8.70;99.90;;;;;;5094268;28;20124;-79
2022/01/03 04:08:55;;;;;;;27.38;4.38;;;8.80;99.90;;;;;;5094352;28;20177;-79
2022/01/03 04:11:21;;;;;;;25.60;4.57;;;8.70;99.90;;;;;;5076289;28;20434;-78
2022/01/03 04:13:47;;;;;;;30.00;4.70;;;8.70;99.90;;;;;;5077400;28;20040;-79
2022/01/03 04:16:16;;;;;;;27.00;6.38;;;8.70;99.90;;;;;;5093786;28;20055;-79
2022/01/03 04:18:42;;;;;;;35.35;8.18;;;8.70;99.90;;;;;;5093052;28;20084;-79
2022/01/03 04:21:08;;;;;;;38.75;6.63;;;8.60;99.90;;;;;;5093834;28;20110;-80
2022/01/03 04:23:34;;;;;;;27.42;4.63;;;8.60;99.90;;;;;;5093115;28;20059;-79
2022/01/03 04:26:00;;;;;;;25.73;4.90;;;8.60;99.90;;;;;;5094487;28;20040;-78
2022/01/03 04:28:26;;;;;;;31.70;5.88;;;8.60;99.90;;;;;;5093724;28;20059;-79
2022/01/03 04:30:51;;;;;;;40.03;5.82;;;8.60;99.90;;;;;;5094218;28;20108;-78
2022/01/03 04:33:17;;;;;;;32.88;5.18;;;8.50;99.90;;;;;;5092751;28;20040;-78
2022/01/03 04:35:43;;;;;;;31.55;5.85;;;8.50;99.90;;;;;;5093897;28;20101;-78
2022/01/03 04:38:10;;;;;;;33.38;4.95;;;8.50;99.90;;;;;;5092619;28;20483;-79
2022/01/03 04:40:36;;;;;;;31.88;4.97;;;8.50;99.90;;;;;;5093067;28;20083;-78
2022/01/03 04:43:03;;;;;;;24.60;4.68;;;8.50;99.90;;;;;;5093526;28;20117;-78
2022/01/03 04:45:29;;;;;;;34.13;5.15;;;8.50;99.90;;;;;;5109538;28;20088;-79
2022/01/03 04:47:54;;;;;;;35.67;6.40;;;8.50;99.90;;;;;;5110205;28;20088;-78
2022/01/03 04:50:24;;;;;;;25.58;5.25;;;8.50;99.90;;;;;;5094351;28;20052;-78
2022/01/03 04:52:50;;;;;;;35.72;7.50;;;8.60;99.90;;;;;;5092386;28;20046;-79
2022/01/03 04:55:15;;;;;;;30.38;4.47;;;8.50;99.90;;;;;;5093252;28;20127;-79
2022/01/03 04:57:41;;;;;;;34.05;5.75;;;8.50;99.90;;;;;;5076132;28;20040;-79
2022/01/03 05:00:10;;;;;;;29.50;4.75;;;8.50;99.90;;;;;;5092550;28;20147;-79
2022/01/03 05:02:37;;;;;;;32.80;4.65;;;8.50;99.90;;;;;;5094194;28;20048;-77
2022/01/03 05:05:04;;;;;;;36.00;6.13;;;8.60;99.90;;;;;;5093336;28;20438;-78
2022/01/03 05:07:30;;;;;;;30.38;5.60;;;8.50;99.90;;;;;;5092288;28;20054;-78
2022/01/03 05:09:55;;;;;;;29.98;5.35;;;8.50;99.90;;;;;;5094096;28;20063;-79
2022/01/03 05:12:21;;;;;;;33.85;5.20;;;8.60;99.90;;;;;;5094146;28;20064;-78
2022/01/03 05:14:47;;;;;;;33.58;6.53;;;8.60;99.90;;;;;;5092161;28;20483;-78
2022/01/03 05:17:13;;;;;;;26.13;6.10;;;8.50;99.90;;;;;;5092852;28;20044;-79
2022/01/03 05:19:39;;;;;;;47.47;8.02;;;8.60;99.90;;;;;;5075905;28;20055;-77
2022/01/03 05:22:05;;;;;;;37.22;5.85;;;8.50;99.90;;;;;;5092535;28;20086;-79
2022/01/03 05:24:35;;;;;;;37.75;6.03;;;8.50;99.90;;;;;;5109689;28;20059;-79
2022/01/03 05:27:05;;;;;;;26.92;6.28;;;8.50;99.90;;;;;;5085356;28;20520;-79
2022/01/03 05:29:32;;;;;;;38.30;7.07;;;8.50;99.90;;;;;;5072339;28;20555;-77
2022/01/03 05:31:58;;;;;;;26.80;5.32;;;8.50;99.90;;;;;;5072455;28;20063;-78
2022/01/03 05:34:24;;;;;;;52.85;6.68;;;8.40;99.90;;;;;;5071472;28;20492;-78
2022/01/03 05:36:50;;;;;;;30.42;6.22;;;8.50;99.90;;;;;;5072619;28;20052;-78
2022/01/03 05:39:16;;;;;;;39.17;5.55;;;8.50;99.90;;;;;;5073648;28;20428;-79
2022/01/03 05:41:41;;;;;;;38.15;6.53;;;8.50;99.90;;;;;;5088826;28;20127;-78
2022/01/03 05:44:08;;;;;;;36.60;5.70;;;8.40;99.90;;;;;;5092593;28;20134;-78
2022/01/03 05:46:34;;;;;;;28.80;6.28;;;8.40;99.90;;;;;;5092752;28;20433;-78
2022/01/03 05:49:00;;;;;;;38.22;6.38;;;8.40;99.90;;;;;;5074516;28;20078;-79
2022/01/03 05:51:26;;;;;;;33.08;8.63;;;8.40;99.90;;;;;;5092506;28;20052;-79
2022/01/03 05:53:53;;;;;;;48.40;8.35;;;8.40;99.90;;;;;;5093787;28;20131;-78
2022/01/03 05:56:19;;;;;;;40.15;5.43;;;8.40;99.90;;;;;;5092526;28;20058;-78
2022/01/03 05:58:45;;;;;;;42.65;7.85;;;8.40;99.90;;;;;;5092036;28;20044;-79
2022/01/03 06:01:11;;;;;;;45.78;6.60;;;8.40;99.90;;;;;;5092395;28;20105;-78
2022/01/03 06:03:39;;;;;;;42.45;6.75;;;8.40;99.90;;;;;;5091940;28;20429;-79
2022/01/03 06:08:34;;;;;;;37.83;5.80;;;8.30;99.90;;;;;;5093553;28;20106;-79
2022/01/03 06:11:00;;;;;;;45.80;7.22;;;8.40;99.90;;;;;;5091121;28;20479;-78
2022/01/03 06:13:28;;;;;;;35.97;6.25;;;8.30;99.90;;;;;;5092449;28;20083;-79
2022/01/03 06:15:55;;;;;;;32.85;7.45;;;8.30;99.90;;;;;;5075569;28;20040;-79
2022/01/03 06:18:21;;;;;;;41.35;6.80;;;8.30;99.90;;;;;;5092119;28;20075;-78
2022/01/03 06:20:49;;;;;;;36.60;5.57;;;8.30;99.90;;;;;;5092248;28;20044;-78
2022/01/03 06:23:16;;;;;;;42.95;7.25;;;8.30;99.90;;;;;;5091260;28;20040;-79
2022/01/03 06:25:43;;;;;;;36.47;7.00;;;8.30;99.90;;;;;;5091846;28;20052;-78
2022/01/03 06:28:09;;;;;;;39.78;5.85;;;8.30;99.90;;;;;;5075452;28;20036;-78
2022/01/03 06:30:40;;;;;;;38.50;6.63;;;8.30;99.90;;;;;;5091477;28;20054;-78
2022/01/03 06:33:08;;;;;;;28.88;4.97;;;8.30;99.90;;;;;;5091856;28;20044;-79
2022/01/03 06:35:35;;;;;;;37.28;5.90;;;8.30;99.90;;;;;;5092171;28;20399;-78
2022/01/03 06:38:04;;;;;;;48.55;7.05;;;8.30;99.90;;;;;;5091298;28;20120;-77
2022/01/03 06:40:29;;;;;;;38.08;8.07;;;8.30;99.90;;;;;;5091706;28;20040;-78
2022/01/03 06:42:55;;;;;;;46.47;7.10;;;8.40;99.90;;;;;;5075124;28;20143;-78
2022/01/03 06:45:21;;;;;;;44.85;6.05;;;8.30;99.90;;;;;;5091045;28;20044;-78
2022/01/03 06:47:49;;;;;;;27.65;5.50;;;8.30;99.90;;;;;;5092943;28;20056;-78
2022/01/03 06:50:15;;;;;;;45.05;6.25;;;8.30;99.90;;;;;;5092038;28;20087;-78
2022/01/03 06:52:40;;;;;;;32.67;6.45;;;8.30;99.90;;;;;;5074101;28;20071;-79
2022/01/03 06:55:08;;;;;;;33.40;5.35;;;8.30;99.90;;;;;;5104759;28;20049;-78
2022/01/03 06:57:34;;;;;;;34.53;5.50;;;8.30;99.90;;;;;;5083533;28;20044;-77
2022/01/03 06:59:59;;;;;;;36.05;5.70;;;8.30;99.90;;;;;;5094457;28;20509;-79
2022/01/03 07:02:25;;;;;;;36.83;6.72;;;8.30;99.90;;;;;;5095516;28;20046;-78
2022/01/03 07:04:51;;;;;;;44.47;7.30;;;8.30;99.90;;;;;;5095528;28;20091;-78
2022/01/03 07:07:17;;;;;;;42.67;8.32;;;8.30;99.90;;;;;;5094738;28;20427;-79
2022/01/03 07:09:42;;;;;;;41.03;5.93;;;8.30;99.90;;;;;;5078121;28;20048;-78
2022/01/03 07:12:08;;;;;;;31.45;6.45;;;8.30;99.90;;;;;;5095061;28;20052;-79
2022/01/03 07:19:52;;;;;;;43.92;7.15;;;8.30;99.90;;;;;;5094186;28;20056;-79
2022/01/03 07:22:18;;;;;;;40.10;6.80;;;8.30;99.90;;;;;;5095071;28;20487;-79
2022/01/03 07:24:44;;;;;;;45.03;7.10;;;8.30;99.90;;;;;;5094781;28;20051;-78
2022/01/03 07:27:12;;;;;;;48.55;7.10;;;8.20;99.90;;;;;;5094345;28;20055;-78
2022/01/03 07:29:38;;;;;;;37.35;5.95;;;8.20;99.90;;;;;;5078045;28;20093;-78
2022/01/03 07:32:05;;;;;;;39.83;5.93;;;8.30;99.90;;;;;;5095965;28;20040;-77
2022/01/03 07:34:31;;;;;;;43.60;6.80;;;8.30;99.90;;;;;;5095075;28;20392;-77
2022/01/03 07:36:56;;;;;;;44.55;6.38;;;8.30;99.90;;;;;;5095003;28;20048;-78
2022/01/03 07:39:22;;;;;;;40.33;7.25;;;8.30;99.90;;;;;;5095973;28;20044;-78
2022/01/03 07:41:48;;;;;;;36.90;5.43;;;8.30;99.90;;;;;;5093604;28;20047;-79
2022/01/03 07:44:14;;;;;;;43.13;8.35;;;8.30;99.90;;;;;;5111967;28;20119;-78
2022/01/03 07:46:40;;;;;;;47.90;7.53;;;8.40;99.90;;;;;;5094533;28;20039;-77
2022/01/03 07:49:06;;;;;;;40.35;8.07;;;8.40;99.90;;;;;;5100452;28;20059;-77
2022/01/03 07:51:32;;;;;;;48.85;8.38;;;8.40;99.90;;;;;;5074479;28;20491;-78
2022/01/03 07:53:58;;;;;;;34.00;6.82;;;8.50;99.90;;;;;;5074194;28;20446;-78
2022/01/03 07:56:24;;;;;;;45.90;7.95;;;8.60;99.90;;;;;;5089107;28;20040;-79
2022/01/03 07:58:50;;;;;;;34.58;6.07;;;8.80;99.90;;;;;;5093918;28;20048;-79
2022/01/03 08:01:16;;;;;;;32.00;6.18;;;8.70;99.90;;;;;;5094353;28;20097;-78
2022/01/03 08:03:41;;;;;;;37.65;5.72;;;8.70;99.90;;;;;;5093325;28;20422;-79
2022/01/03 08:06:09;;;;;;;41.85;6.68;;;8.70;99.90;;;;;;5094128;28;20055;-78
2022/01/03 08:08:36;;;;;;;51.08;7.72;;;8.80;99.90;;;;;;5093505;28;20120;-79
2022/01/03 08:11:02;;;;;;;44.47;7.63;;;8.80;99.90;;;;;;5094209;28;20387;-78
2022/01/03 08:13:28;;;;;;;39.20;6.30;;;8.80;99.90;;;;;;5095245;28;20041;-79
2022/01/03 08:15:54;;;;;;;35.95;5.78;;;8.80;99.90;;;;;;5093372;28;20105;-77
2022/01/03 08:18:20;;;;;;;37.03;6.05;;;8.80;99.90;;;;;;5094058;28;20437;-76
2022/01/03 08:20:45;;;;;;;40.60;7.70;;;8.80;99.90;;;;;;5094109;28;20044;-77
2022/01/03 08:23:11;;;;;;;49.85;5.95;;;8.80;99.90;;;;;;5093041;28;20410;-77
2022/01/03 08:25:37;;;;;;;48.20;6.93;;;8.80;99.90;;;;;;5076671;28;20040;-77
2022/01/03 08:28:07;;;;;;;35.47;6.05;;;8.90;99.90;;;;;;5110591;28;20109;-76
2022/01/03 08:30:34;;;;;;;42.45;7.13;;;8.80;99.90;;;;;;5109813;28;20487;-77
2022/01/03 08:33:01;;;;;;;31.27;4.82;;;8.80;99.90;;;;;;5093894;28;20093;-76
2022/01/03 08:35:27;;;;;;;35.80;6.35;;;8.90;99.90;;;;;;5093634;28;20051;-76
2022/01/03 08:37:53;;;;;;;35.20;6.97;;;8.90;99.90;;;;;;5092970;28;20455;-77
2022/01/03 08:40:20;;;;;;;37.95;6.65;;;8.90;99.90;;;;;;5092094;28;20097;-79
2022/01/03 08:42:46;;;;;;;35.97;7.43;;;8.90;99.90;;;;;;5093518;28;20051;-77
2022/01/03 08:45:12;;;;;;;30.38;5.85;;;9.00;99.90;;;;;;5092827;28;20040;-77
2022/01/03 08:47:38;;;;;;;36.42;5.07;;;9.00;99.90;;;;;;5094402;28;20472;-79
2022/01/03 08:50:06;;;;;;;48.10;8.52;;;9.00;99.90;;;;;;5093152;28;20173;-79
2022/01/03 08:52:33;;;;;;;35.05;6.68;;;9.00;99.90;;;;;;5092116;28;20096;-78
2022/01/03 08:54:59;;;;;;;38.40;5.93;;;9.00;99.90;;;;;;5092977;28;20128;-78
2022/01/03 08:57:25;;;;;;;35.90;5.97;;;9.00;99.90;;;;;;5092835;28;20098;-79
2022/01/03 08:59:50;;;;;;;34.28;6.03;;;9.10;99.90;;;;;;5093620;28;20051;-78
2022/01/03 09:02:17;;;;;;;34.13;6.55;;;9.10;99.90;;;;;;5074701;28;20145;-77
2022/01/03 09:04:56;;;;;;;35.72;5.20;;;9.10;99.90;;;;;;5091132;28;20051;-79
2022/01/03 09:07:22;;;;;;;41.50;7.03;;;9.10;99.90;;;;;;5074099;28;20548;-79
2022/01/03 09:09:48;;;;;;;42.50;6.32;;;9.10;99.90;;;;;;5092078;28;20048;-78
2022/01/03 09:12:14;;;;;;;40.33;6.78;;;9.10;99.90;;;;;;5092128;28;20128;-78
2022/01/03 09:14:40;;;;;;;38.80;6.50;;;9.20;99.90;;;;;;5075951;28;20083;-79
2022/01/03 09:17:06;;;;;;;35.97;7.40;;;9.20;99.90;;;;;;5093989;28;20052;-78
2022/01/03 09:19:32;;;;;;;40.97;7.43;;;9.20;99.90;;;;;;5091285;28;20123;-79
2022/01/03 09:22:17;;;;;;;37.90;5.88;;;9.20;99.90;;;;;;5093043;28;20044;-77
2022/01/03 09:28:48;;;;;;;36.95;5.90;;;9.20;99.90;;;;;;5092668;28;20066;-77
2022/01/03 09:30:23;;;;;;;31.45;6.90;;;9.20;99.90;;;;;;5092775;28;20131;-80
2022/01/03 09:32:48;;;;;;;35.13;5.85;;;9.20;99.90;;;;;;5092402;28;20544;-78
2022/01/03 09:35:15;;;;;;;31.98;5.80;;;9.20;99.90;;;;;;5108602;28;20044;-78
2022/01/03 09:37:41;;;;;;;36.15;5.55;;;9.20;99.90;;;;;;5109370;28;20063;-79
2022/01/03 09:40:08;;;;;;;34.22;5.55;;;9.20;99.90;;;;;;5091608;28;20036;-78
2022/01/03 09:42:34;;;;;;;34.83;5.57;;;9.30;99.90;;;;;;5090989;28;20483;-78
2022/01/03 09:45:07;;;;;;;29.60;5.65;;;9.20;99.90;;;;;;5091821;28;20055;-78
2022/01/03 09:47:37;;;;;;;28.20;5.28;;;9.20;99.90;;;;;;5091365;28;20051;-78
2022/01/03 09:50:03;;;;;;;34.67;5.47;;;9.20;99.90;;;;;;5093267;28;20056;-79
2022/01/03 09:52:31;;;;;;;31.17;6.45;;;9.20;99.90;;;;;;5075239;28;20051;-78
2022/01/03 09:54:57;;;;;;;34.65;8.25;;;9.20;99.90;;;;;;5091533;28;20502;-79
2022/01/03 09:57:25;;;;;;;36.05;5.72;;;9.20;99.90;;;;;;5093234;28;20040;-80
2022/01/03 09:59:51;;;;;;;35.20;5.40;;;9.30;99.90;;;;;;5093466;28;20052;-80
2022/01/03 10:02:18;;;;;;;31.33;4.85;;;9.30;99.90;;;;;;5091545;28;20055;-79
2022/01/03 10:04:44;;;;;;;34.08;5.82;;;9.30;99.90;;;;;;5093330;28;20052;-80
2022/01/03 10:07:11;;;;;;;38.22;5.68;;;9.30;99.90;;;;;;5093503;28;20380;-80
2022/01/03 10:09:38;;;;;;;36.88;6.22;;;9.30;99.90;;;;;;5091190;28;20047;-80
2022/01/03 10:12:05;;;;;;;33.40;6.35;;;9.30;99.90;;;;;;5091832;28;20047;-78
2022/01/03 10:14:31;;;;;;;32.58;4.93;;;9.30;99.90;;;;;;5092189;28;20127;-79
2022/01/03 10:16:57;;;;;;;33.97;5.85;;;9.30;99.90;;;;;;5108474;28;20543;-78
2022/01/03 10:19:23;;;;;;;32.70;5.93;;;9.30;99.90;;;;;;5091875;28;20518;-78
2022/01/03 10:21:51;;;;;;;33.97;5.35;;;9.30;99.90;;;;;;5091905;28;20044;-81
2022/01/03 10:24:19;;;;;;;37.22;5.30;;;9.40;99.90;;;;;;5091204;28;20529;-79
2022/01/03 10:26:53;;;;;;;28.52;5.45;;;9.40;99.90;;;;;;5091502;28;20068;-80
2022/01/03 10:29:22;;;;;;;38.65;6.28;;;9.40;99.90;;;;;;5090989;28;20100;-78
2022/01/03 10:31:54;;;;;;;31.42;7.03;;;9.40;99.90;;;;;;5094772;28;20040;-79
2022/01/03 10:34:23;;;;;;;25.63;5.22;;;9.50;99.90;;;;;;5079000;28;20055;-79
2022/01/03 10:36:50;;;;;;;33.50;6.55;;;9.50;99.90;;;;;;5094789;28;20040;-79
2022/01/03 10:39:27;;;;;;;29.80;4.90;;;9.50;99.90;;;;;;5095741;28;20091;-80
2022/01/03 10:42:13;;;;;;;33.33;6.07;;;9.50;99.90;;;;;;5095496;28;20047;-79
2022/01/03 10:44:41;;;;;;;35.67;6.72;;;9.60;99.90;;;;;;5088870;28;20079;-78
2022/01/03 10:47:27;;;;;;;30.05;6.00;;;9.60;99.90;;;;;;5095589;28;20479;-79
2022/01/03 10:49:53;;;;;;;33.75;6.75;;;9.60;99.90;;;;;;5095326;28;20067;-80
2022/01/03 10:52:28;;;;;;;29.98;4.95;;;9.60;99.90;;;;;;5077993;28;20048;-80
2022/01/03 10:55:17;;;;;;;25.70;5.00;;;9.60;99.90;;;;;;5078256;28;20487;-79
2022/01/03 10:57:45;;;;;;;38.35;5.85;;;9.70;99.90;;;;;;5094473;28;20051;-79
2022/01/03 11:00:23;;;;;;;34.20;6.10;;;9.70;99.90;;;;;;5096459;28;20059;-79
2022/01/03 11:03:22;;;;;;;39.42;5.85;;;9.70;99.90;;;;;;5095193;28;20055;-80
2022/01/03 11:05:54;;;;;;;33.83;6.22;;;9.80;99.90;;;;;;5064533;28;20048;-80
2022/01/03 11:11:09;;;;;;;33.75;6.15;;;9.80;99.90;;;;;;5094818;28;20051;-80
2022/01/03 11:13:40;;;;;;;32.25;5.55;;;9.80;99.90;;;;;;5094188;28;20655;-79
2022/01/03 11:16:08;;;;;;;33.65;5.40;;;9.80;99.90;;;;;;5094209;28;20101;-81
2022/01/03 11:18:43;;;;;;;32.45;5.97;;;9.80;99.90;;;;;;5091580;28;20051;-79
2022/01/03 11:21:16;;;;;;;32.58;5.55;;;9.80;99.90;;;;;;5077424;28;20576;-78
2022/01/03 11:23:58;;;;;;;36.53;6.15;;;9.80;99.90;;;;;;5096222;28;20478;-80
2022/01/03 11:26:26;;;;;;;31.60;5.63;;;9.80;99.90;;;;;;5095314;28;20039;-80
2022/01/03 11:28:53;;;;;;;30.60;5.65;;;9.80;99.90;;;;;;5096020;28;20395;-78
2022/01/03 11:31:20;;;;;;;44.92;7.40;;;9.90;99.90;;;;;;5095229;28;20056;-78
2022/01/03 11:33:48;;;;;;;33.20;6.57;;;9.90;99.90;;;;;;5093901;28;20391;-79
2022/01/03 11:36:17;;;;;;;31.85;5.55;;;9.90;99.90;;;;;;5094764;28;20554;-78
2022/01/03 11:38:45;;;;;;;31.83;5.45;;;9.90;99.90;;;;;;5095074;28;20115;-79
2022/01/03 11:41:11;;;;;;;24.55;4.88;;;9.90;99.90;;;;;;5093123;28;20044;-78
2022/01/03 11:43:40;;;;;;;23.95;5.43;;;9.90;99.90;;;;;;5095068;28;20509;-79
2022/01/03 11:46:07;;;;;;;20.73;4.82;;;9.90;99.90;;;;;;5094527;28;20067;-79
2022/01/03 11:48:33;;;;;;;29.67;6.07;;;9.90;99.90;;;;;;5075675;28;20142;-79
2022/01/03 11:51:08;;;;;;;28.63;5.70;;;9.90;99.90;;;;;;5094292;28;20165;-78
2022/01/03 11:53:37;;;;;;;33.70;5.47;;;9.90;99.90;;;;;;5090433;28;20059;-78
2022/01/03 11:56:05;;;;;;;28.25;4.72;;;9.90;99.90;;;;;;5093981;28;20055;-77
2022/01/03 11:58:48;;;;;;;27.92;5.97;;;9.90;99.90;;;;;;5094352;28;20040;-79
2022/01/03 12:04:09;;;;;;;27.10;5.88;;;9.90;99.90;;;;;;5094367;28;20087;-79
2022/01/03 12:06:35;;;;;;;43.10;7.47;;;10.00;99.90;;;;;;5094200;28;20055;-77
2022/01/03 12:09:06;;;;;;;28.13;5.10;;;9.90;99.90;;;;;;5093256;28;20052;-78
2022/01/03 12:11:33;;;;;;;29.08;5.47;;;10.00;99.90;;;;;;5094120;28;20131;-79
2022/01/03 12:14:10;;;;;;;24.10;5.60;;;10.10;99.90;;;;;;5093361;28;20050;-78
2022/01/03 12:16:44;;;;;;;25.13;4.32;;;10.10;99.90;;;;;;5093275;28;20047;-76
2022/01/03 12:19:13;;;;;;;27.83;4.57;;;10.20;99.90;;;;;;5094077;28;20052;-78
2022/01/03 12:21:48;;;;;;;40.00;6.38;;;10.20;99.90;;;;;;5093548;28;20044;-78
2022/01/03 12:24:26;;;;;;;29.00;4.70;;;10.20;99.90;;;;;;5093991;28;20047;-79
2022/01/03 12:27:10;;;;;;;42.60;7.28;;;10.20;99.90;;;;;;5094974;28;20109;-80
2022/01/03 12:29:57;;;;;;;39.65;6.43;;;10.20;99.90;;;;;;5092783;28;20055;-80
2022/01/03 12:32:25;;;;;;;34.28;5.63;;;10.20;99.90;;;;;;5093685;28;20050;-79
2022/01/03 12:35:16;;;;;;;31.73;5.93;;;10.30;99.90;;;;;;5093848;28;20076;-79
2022/01/03 12:37:50;;;;;;;38.10;5.95;;;10.30;99.90;;;;;;5093194;28;20091;-79
2022/01/03 12:40:22;;;;;;;30.25;4.88;;;10.30;99.90;;;;;;5094679;28;20040;-80
2022/01/03 12:42:48;;;;;;;30.60;5.90;;;10.40;99.90;;;;;;5109950;28;20048;-78
2022/01/03 12:45:39;;;;;;;29.17;5.85;;;10.40;99.90;;;;;;5093524;28;20513;-79
2022/01/03 12:48:11;;;;;;;31.90;5.50;;;10.50;99.90;;;;;;5084719;28;20811;-79
2022/01/03 12:51:03;;;;;;;36.45;7.38;;;10.50;99.90;;;;;;5075651;28;20056;-79
2022/01/03 12:53:29;;;;;;;27.63;6.30;;;10.50;99.90;;;;;;5092752;28;20048;-77
2022/01/03 12:56:03;;;;;;;30.50;5.93;;;10.50;99.90;;;;;;5092917;28;20415;-79
2022/01/03 12:58:28;;;;;;;43.90;6.63;;;10.40;99.90;;;;;;5075586;28;20047;-78
2022/01/03 13:01:08;;;;;;;32.28;5.85;;;10.40;99.90;;;;;;5093260;28;20537;-79
2022/01/03 13:03:43;;;;;;;38.28;6.63;;;10.40;99.90;;;;;;5093411;28;20460;-78
2022/01/03 13:06:14;;;;;;;30.70;5.60;;;10.40;99.90;;;;;;5092447;28;20526;-81
2022/01/03 13:08:41;;;;;;;33.42;6.10;;;10.30;99.90;;;;;;5093423;28;20048;-79
2022/01/03 13:11:13;;;;;;;27.13;5.15;;;10.30;99.90;;;;;;5092176;28;20047;-79
2022/01/03 13:13:41;;;;;;;33.85;7.95;;;10.30;99.90;;;;;;5093193;28;20368;-80